Corozal, Colombia

9:03 PM COT on July 27, 2016 (GMT -0500)
Corpoica MAPA Toluviejo | | Change Station

Elev 131 ft 9.48 °N, 75.46 °W | Updated 6 minutes ago

Scattered Clouds
Scattered Clouds
81.9 °F
Feels Like 92 °F
N
0.0
Wind Variable Wind from WNW
Gusts 2.0 mph

Today
High -- | Low -- °F
--% Chance of Precip.
Yesterday
High -- | Low -- °F
Precip. -- in
Pressure 29.78 in
Visibility 6.2 miles
Clouds Few 1500 ft
Scattered Clouds 20000 ft
Heat Index 92 °F
Dew Point 79 °F
Humidity 92%
Rainfall 0.00 in
Snow Depth Not available.
5:51 AM 6:24 PM
Last Quarter, 37% visible
METAR SKMR 280100Z 19004KT 9999 FEW015CB SCT200 28/25 A2978 RMK CB LTNG/S
Pressure 29.78 in
Visibility 6.2 miles
Clouds Few 1500 ft
Scattered Clouds 20000 ft
Heat Index 92 °F
Dew Point 79 °F
Humidity 92%
Rainfall 0.00 in
Snow Depth Not available.
5:51 AM 6:24 PM
Last Quarter, 37% visible
METAR SKMR 280100Z 19004KT 9999 FEW015CB SCT200 28/25 A2978 RMK CB LTNG/S

10-Day Weather Forecast

No radar image for this location.
×

Almanac

Astronomy

Jul. 27, 2016 Rise Set
Actual Time
Civil Twilight
Nautical Twilight
Astronomical Twilight
Moon
Length of Visible Light
Length of Day
Tomorrow will be .
, % of the Moon is Illuminated

Today's Extremes

Country Highs Country Lows

Community

WunderPhotos

Upload Photos

1,928,008 photos uploaded!

WunderBlog® & News

Nearby

Air Quality

  Air Quality AQ Index Pollutant
Not available.

Snow Depth

Station Depth Elevation

Earthquake Activity

City Distance Mag. Time & Date
Minimum magnitude displayed is 2.5.

Coastal Water Temperatures

Place Temperature

Stations

Nearby Weather Stations

Station Location Temp. Windchill Dew Point Humidity Wind Precip. Elev Updated Type